Capitol Logistics 542




WSSS
Changi International Airport
Singapore, SG
WMKK
Kuala Lumpur International Airport
Kuala Lumpur, MY

Activity Log

Date Flight Route Aircraft Duration
No Flights Yet

Route Details

Aircraft Information
Group: Trans-Pacific Ops
Types: B744,B763,MD11
Route Data
Demand: V
Distance: 160nm
Duration: 1h 05m
Recm'd Route: MASB2E MASBO A457 GUPTA GUPT1H
Origin Wx: WSSS 272100Z 33002KT 9999 FEW016 BKN280 27/25 Q1007 NOSIG
Dest. Wx: WMKK 272100Z 00000KT 9000 TS FEW010 FEW017CB 25/24 Q1008 TEMPO 7000 -TSRA
Notes:

Financial History
Total Freight: 0lbs
Average Load: 0lbs/flt
Fuel Used: 0lbs
Avg. Fuel Used: 0lbs/flt
Fuel Expense: $0
Avg. Fuel Expense: $0
Avg. Fuel Cost: $0/lbs
Total Gross Income: $0
Pilot Pay: $0
Total Expenses: $0
Total Revenue: $0
Average Revenue: $0